Time;durP1;ratioP1;P1;durP2;ratioP2;P2;SDS_P1;SDS_P2;PMS_P1;PMS_P2;Temp;Humidity;BMP_temperature;BMP_pressure;BME280_temperature;BME280_humidity;BME280_pressure;Samples;Min_cycle;Max_cycle;Signal;HPM_P1;HPM_P2
2023/10/17 00:01:35;;;;;;;5.50;3.55;;;;;;;7.65;100.00;102065.56;5030062;28;20467;-82
2023/10/17 00:06:45;;;;;;;7.32;3.88;;;;;;;7.61;100.00;102066.53;5034824;28;20036;-81
2023/10/17 00:09:17;;;;;;;6.07;4.13;;;;;;;7.66;100.00;102074.75;5037082;28;20040;-81
2023/10/17 00:11:58;;;;;;;9.13;4.70;;;;;;;7.53;100.00;102070.97;5033803;28;20021;-81
2023/10/17 00:14:35;;;;;;;6.63;4.28;;;;;;;7.57;100.00;102063.59;5036333;28;20143;-82
2023/10/17 00:17:03;;;;;;;5.18;3.92;;;;;;;7.61;100.00;102060.97;5030647;28;20024;-81
2023/10/17 00:19:31;;;;;;;5.70;3.83;;;;;;;7.60;100.00;102064.91;5037668;28;20599;-81
2023/10/17 00:21:59;;;;;;;5.93;4.97;;;;;;;7.51;100.00;102057.38;5020274;28;20033;-82
2023/10/17 00:24:25;;;;;;;5.22;3.95;;;;;;;7.52;100.00;102059.00;5038118;28;20438;-81
2023/10/17 00:26:50;;;;;;;7.82;4.28;;;;;;;7.58;100.00;102062.44;5029352;28;20086;-82
2023/10/17 00:29:16;;;;;;;6.93;3.75;;;;;;;7.45;100.00;102064.25;5027802;28;20024;-82
2023/10/17 00:31:43;;;;;;;6.22;4.32;;;;;;;7.56;100.00;102052.78;5041268;28;20067;-81
2023/10/17 00:34:16;;;;;;;6.40;3.95;;;;;;;7.53;100.00;102054.28;5040820;28;20430;-82
2023/10/17 00:36:48;;;;;;;9.00;4.00;;;;;;;7.51;100.00;102049.00;5018650;28;20493;-81
2023/10/17 00:39:29;;;;;;;5.40;3.97;;;;;;;7.46;100.00;102046.41;5039410;28;20037;-81
2023/10/17 00:44:38;;;;;;;5.70;4.15;;;;;;;7.41;100.00;102035.41;5032348;28;20094;-82
2023/10/17 00:47:06;;;;;;;7.88;4.47;;;;;;;7.52;100.00;102047.03;5019852;28;20116;-81
2023/10/17 00:49:44;;;;;;;9.80;5.25;;;;;;;7.52;100.00;102041.47;5011271;28;20050;-81
2023/10/17 00:52:23;;;;;;;5.55;3.90;;;;;;;7.45;100.00;102047.53;5014079;28;20064;-82
2023/10/17 00:54:51;;;;;;;8.23;4.35;;;;;;;7.41;100.00;102043.78;5017734;28;20140;-82
2023/10/17 00:57:17;;;;;;;5.22;3.90;;;;;;;7.50;100.00;102055.72;5018254;28;20476;-81
2023/10/17 00:59:53;;;;;;;8.90;4.45;;;;;;;7.44;100.00;102051.50;5021327;28;20026;-82
2023/10/17 01:02:23;;;;;;;6.22;4.20;;;;;;;7.41;100.00;102035.41;5022163;28;20411;-81
2023/10/17 01:04:52;;;;;;;4.93;4.03;;;;;;;7.32;100.00;102037.38;5021678;28;20116;-84
2023/10/17 01:07:30;;;;;;;8.48;4.18;;;;;;;7.43;100.00;102024.75;5024176;28;20038;-83
2023/10/17 01:10:09;;;;;;;4.55;3.88;;;;;;;7.49;100.00;102025.41;5020883;28;20088;-83
2023/10/17 01:12:36;;;;;;;5.75;4.35;;;;;;;7.39;100.00;102021.00;5015863;28;20039;-82
2023/10/17 01:15:02;;;;;;;7.55;4.53;;;;;;;7.41;100.00;102029.03;5020729;28;20025;-82
2023/10/17 01:17:28;;;;;;;8.70;4.00;;;;;;;7.37;100.00;102031.66;5020090;28;20388;-81
2023/10/17 01:20:07;;;;;;;4.72;4.10;;;;;;;7.36;100.00;102027.22;5017326;28;20026;-81
2023/10/17 01:22:33;;;;;;;5.25;4.03;;;;;;;7.34;100.00;102032.31;5020278;28;20554;-81
2023/10/17 01:24:58;;;;;;;5.05;3.53;;;;;;;7.41;100.00;102031.81;5019287;28;20132;-81
2023/10/17 01:27:23;;;;;;;7.82;4.03;;;;;;;7.32;100.00;102037.38;5021439;28;20021;-81
2023/10/17 01:29:49;;;;;;;7.00;4.43;;;;;;;7.30;100.00;102034.94;5023214;28;20074;-82
2023/10/17 01:32:15;;;;;;;8.30;4.38;;;;;;;7.24;100.00;102033.44;5019028;28;20060;-81
2023/10/17 01:34:40;;;;;;;8.50;3.83;;;;;;;7.27;100.00;102031.97;5017000;28;20029;-82
2023/10/17 01:37:10;;;;;;;5.13;4.15;;;;;;;7.31;100.00;102035.72;5022434;28;20075;-81
2023/10/17 01:39:37;;;;;;;6.07;4.03;;;;;;;7.31;100.00;102030.16;5022056;28;20033;-81
2023/10/17 01:42:04;;;;;;;7.90;4.05;;;;;;;7.29;100.00;102036.09;5016364;28;20116;-81
2023/10/17 01:44:29;;;;;;;4.63;3.85;;;;;;;7.27;100.00;102026.41;5022249;28;20029;-81
2023/10/17 01:46:55;;;;;;;4.85;3.53;;;;;;;7.30;100.00;102022.97;5018908;28;20026;-81
2023/10/17 01:49:20;;;;;;;10.23;3.88;;;;;;;7.21;100.00;102027.69;5035084;28;20053;-82
2023/10/17 01:51:48;;;;;;;4.50;3.75;;;;;;;7.29;100.00;102026.88;5032856;28;20056;-81
2023/10/17 01:54:16;;;;;;;5.93;3.83;;;;;;;7.30;100.00;102022.97;5041977;28;20032;-81
2023/10/17 01:56:47;;;;;;;5.45;3.78;;;;;;;7.27;100.00;102021.66;5027076;28;20075;-81
2023/10/17 01:59:25;;;;;;;6.03;4.25;;;;;;;7.32;100.00;102021.50;5031451;28;20033;-81
2023/10/17 02:01:51;;;;;;;5.45;3.13;;;;;;;7.30;100.00;102025.75;5030254;28;20071;-81
2023/10/17 02:04:19;;;;;;;7.47;4.20;;;;;;;7.33;100.00;102016.72;5040506;28;20033;-81
2023/10/17 02:06:47;;;;;;;5.38;4.00;;;;;;;7.25;100.00;102010.03;5042258;28;20044;-81
2023/10/17 02:11:56;;;;;;;4.22;3.20;;;;;;;7.31;100.00;102005.09;5044414;28;20025;-81
2023/10/17 02:14:22;;;;;;;5.82;3.33;;;;;;;7.25;100.00;102020.34;5037342;28;20321;-81
2023/10/17 02:16:48;;;;;;;6.28;3.60;;;;;;;7.25;100.00;102014.75;5028184;28;20684;-81
2023/10/17 02:19:14;;;;;;;4.53;3.53;;;;;;;7.24;100.00;102013.94;5038307;28;20037;-82
2023/10/17 02:21:40;;;;;;;4.32;3.85;;;;;;;7.29;100.00;102011.03;5041398;28;20474;-81
2023/10/17 02:24:09;;;;;;;6.13;4.47;;;;;;;7.31;100.00;102013.44;5022515;28;20131;-81
2023/10/17 02:29:23;;;;;;;6.18;3.92;;;;;;;7.23;100.00;102022.63;5036391;28;20403;-82
2023/10/17 02:31:52;;;;;;;4.45;4.00;;;;;;;7.21;100.00;102011.00;5031854;28;20029;-82
2023/10/17 02:34:22;;;;;;;6.65;4.03;;;;;;;7.13;100.00;102018.22;5034572;28;20029;-81
2023/10/17 02:36:47;;;;;;;4.43;3.67;;;;;;;7.24;100.00;102013.94;5031781;28;20112;-81
2023/10/17 02:39:13;;;;;;;6.63;4.10;;;;;;;7.23;100.00;102014.28;5036235;28;20093;-81
2023/10/17 02:41:38;;;;;;;5.97;4.55;;;;;;;7.21;100.00;102019.34;5020353;28;20075;-81
2023/10/17 02:44:03;;;;;;;7.30;4.07;;;;;;;7.12;100.00;102022.94;5024395;28;20037;-81
2023/10/17 02:46:29;;;;;;;5.30;3.13;;;;;;;7.18;100.00;102023.59;5042618;28;20106;-82
2023/10/17 02:48:56;;;;;;;6.05;4.10;;;;;;;7.14;100.00;102014.28;5039082;28;20095;-81
2023/10/17 02:53:56;;;;;;;4.82;3.88;;;;;;;7.10;100.00;102019.69;5039364;28;20096;-81
2023/10/17 02:56:22;;;;;;;8.13;4.38;;;;;;;7.15;100.00;102015.94;5041106;28;20400;-82
2023/10/17 02:58:50;;;;;;;4.95;3.65;;;;;;;7.12;100.00;102013.78;5043550;28;20053;-81
2023/10/17 03:01:17;;;;;;;6.65;4.05;;;;;;;7.17;100.00;102012.78;5043022;28;20479;-82
2023/10/17 03:03:43;;;;;;;5.25;4.03;;;;;;;7.10;100.00;102007.72;5021457;28;20471;-81
2023/10/17 03:06:16;;;;;;;4.90;3.83;;;;;;;7.19;100.00;102016.06;5038651;28;20029;-81
2023/10/17 03:08:42;;;;;;;;;;;;;;;7.21;100.00;102016.56;5021552;28;20041;-81
2023/10/17 03:11:08;;;;;;;5.30;3.95;;;;;;;7.18;100.00;102009.69;5038015;28;19920;-81
2023/10/17 03:13:40;;;;;;;5.10;3.95;;;;;;;7.19;100.00;102013.28;5018950;28;20060;-82
2023/10/17 03:16:26;;;;;;;5.72;4.22;;;;;;;7.10;100.00;102011.34;5035398;28;20039;-82
2023/10/17 03:18:52;;;;;;;6.07;3.95;;;;;;;7.07;100.00;102000.84;5045704;28;20037;-81
2023/10/17 03:21:30;;;;;;;6.97;5.00;;;;;;;7.02;100.00;101992.66;5047872;28;20134;-81
2023/10/17 03:24:00;;;;;;;5.78;3.83;;;;;;;7.04;100.00;101984.81;5038992;28;20363;-81
2023/10/17 03:26:26;;;;;;;6.63;3.83;;;;;;;6.99;100.00;101993.31;5038859;28;20020;-82
2023/10/17 03:28:51;;;;;;;7.93;5.65;;;;;;;7.06;100.00;101990.88;5037688;28;20121;-81
2023/10/17 03:31:26;;;;;;;5.68;3.85;;;;;;;7.05;100.00;101989.22;5042269;28;20106;-81
2023/10/17 03:33:52;;;;;;;4.95;3.13;;;;;;;7.06;100.00;101990.03;5025326;28;20040;-81
2023/10/17 03:39:18;;;;;;;11.90;4.82;;;;;;;6.93;100.00;101983.47;5038462;28;20550;-81
2023/10/17 03:41:43;;;;;;;7.70;3.45;;;;;;;6.97;100.00;101978.88;5026775;28;20115;-81
2023/10/17 03:44:09;;;;;;;9.30;3.92;;;;;;;7.00;100.00;101989.38;5029363;28;20604;-81
2023/10/17 03:46:35;;;;;;;5.88;3.75;;;;;;;7.05;100.00;101986.44;5019129;28;20063;-81
2023/10/17 03:49:03;;;;;;;4.43;3.17;;;;;;;7.02;100.00;102003.78;5039169;28;20084;-81
2023/10/17 03:51:30;;;;;;;6.50;3.80;;;;;;;6.94;100.00;102004.59;5025821;28;20029;-81
2023/10/17 03:54:06;;;;;;;5.85;4.28;;;;;;;6.85;100.00;102006.53;5042500;28;20049;-82
2023/10/17 03:56:35;;;;;;;5.53;3.88;;;;;;;6.90;100.00;102006.41;5043111;28;20025;-81
2023/10/17 03:59:30;;;;;;;11.88;4.15;;;;;;;6.97;100.00;102020.63;5043075;28;20025;-81
2023/10/17 04:01:49;;;;;;;4.35;3.58;;;;;;;6.83;100.00;102022.75;5032979;28;20493;-81
2023/10/17 04:04:33;;;;;;;4.68;3.25;;;;;;;6.90;100.00;102020.31;5034939;28;20041;-81
2023/10/17 04:06:58;;;;;;;9.27;4.15;;;;;;;6.82;100.00;102013.56;5024562;28;20025;-82
2023/10/17 04:11:52;;;;;;;3.97;3.03;;;;;;;6.83;100.00;102025.53;5040793;28;20039;-81
2023/10/17 04:14:20;;;;;;;5.22;3.33;;;;;;;6.91;100.00;102030.28;5033139;28;20029;-81
2023/10/17 04:16:48;;;;;;;4.78;3.15;;;;;;;6.81;100.00;102030.59;5041886;28;20085;-81
2023/10/17 04:19:17;;;;;;;4.82;3.33;;;;;;;6.90;100.00;102031.44;5042355;28;20028;-81
2023/10/17 04:24:34;;;;;;;5.57;3.88;;;;;;;6.79;100.00;102036.50;5039090;28;20104;-81
2023/10/17 04:27:06;;;;;;;10.05;3.88;;;;;;;6.76;100.00;102027.97;5037334;28;20053;-81
2023/10/17 04:29:35;;;;;;;6.25;3.38;;;;;;;6.73;100.00;102021.09;5040096;28;20025;-81
2023/10/17 04:32:10;;;;;;;7.47;3.65;;;;;;;6.70;100.00;102024.50;5017018;28;20068;-82
2023/10/17 04:34:35;;;;;;;7.50;3.33;;;;;;;6.74;100.00;102021.91;5040434;28;20024;-81
2023/10/17 04:37:03;;;;;;;6.93;3.90;;;;;;;6.70;100.00;102033.69;5040753;28;20107;-81
2023/10/17 04:39:35;;;;;;;4.70;3.10;;;;;;;6.75;100.00;102037.47;5028052;28;20498;-81
2023/10/17 04:44:39;;;;;;;4.18;3.13;;;;;;;6.66;100.00;102040.22;5036406;28;20059;-81
2023/10/17 04:49:50;;;;;;;4.35;3.28;;;;;;;6.72;100.00;102041.72;5032149;28;20080;-81
2023/10/17 04:52:29;;;;;;;6.15;4.05;;;;;;;6.59;100.00;102040.69;5039003;28;20028;-82
2023/10/17 04:55:01;;;;;;;3.58;3.03;;;;;;;6.55;100.00;102042.47;5031560;28;20041;-81
2023/10/17 04:57:54;;;;;;;3.42;3.08;;;;;;;6.53;100.00;102039.19;5021781;28;20139;-81
2023/10/17 05:00:25;;;;;;;3.83;2.83;;;;;;;6.54;100.00;102040.84;5035822;28;20041;-82
2023/10/17 05:06:10;;;;;;;4.40;3.63;;;;;;;6.47;100.00;102032.13;5006264;28;20072;-81
2023/10/17 05:08:33;;;;;;;4.07;3.03;;;;;;;6.53;100.00;102025.28;5036102;28;20041;-81
2023/10/17 06:17:27;;;;;;;5.40;4.18;;;;;;;6.38;100.00;102025.72;4979702;28;20034;-83
2023/10/17 06:19:53;;;;;;;4.82;4.13;;;;;;;6.33;100.00;102018.34;4985810;28;20531;-83
2023/10/17 06:24:46;;;;;;;4.43;3.67;;;;;;;6.64;100.00;102023.03;5036928;28;20052;-84
2023/10/17 06:35:26;;;;;;;7.10;4.10;;;;;;;6.44;100.00;102047.50;5033403;28;20040;-84
2023/10/17 06:37:51;;;;;;;8.23;4.72;;;;;;;6.45;100.00;102046.38;5047206;28;20021;-84
2023/10/17 06:40:17;;;;;;;8.75;4.15;;;;;;;6.41;100.00;102041.75;5022621;28;20231;-84
2023/10/17 06:42:49;;;;;;;9.73;4.20;;;;;;;6.41;100.00;102044.53;5039809;28;20037;-84
2023/10/17 06:45:18;;;;;;;7.43;4.03;;;;;;;6.38;100.00;102034.88;5018635;28;20026;-84
2023/10/17 06:47:48;;;;;;;7.85;4.38;;;;;;;6.40;100.00;102034.56;5023199;28;20029;-84
2023/10/17 06:52:54;;;;;;;9.45;4.13;;;;;;;6.37;100.00;102027.69;5039220;28;20112;-86
2023/10/17 06:55:38;;;;;;;9.63;4.82;;;;;;;6.40;100.00;102034.56;5029674;28;20083;-86
2023/10/17 06:58:09;;;;;;;6.93;4.82;;;;;;;6.55;100.00;102042.47;5036132;28;20433;-87
2023/10/17 07:00:53;;;;;;;8.25;4.65;;;;;;;6.51;100.00;102035.91;5036900;28;20139;-86
2023/10/17 07:03:25;;;;;;;7.78;5.55;;;;;;;6.25;100.00;102050.53;5026510;28;20035;-86
2023/10/17 07:06:02;;;;;;;7.10;4.75;;;;;;;6.25;100.00;102042.19;5048891;23;20494;-75
2023/10/17 07:08:36;;;;;;;9.25;5.35;;;;;;;6.26;100.00;102052.19;5042561;28;20043;-75
2023/10/17 07:16:34;;;;;;;8.05;5.57;;;;;;;6.37;100.00;102057.47;5052672;28;20436;-75
2023/10/17 07:20:12;;;;;;;8.80;5.25;;;;;;;6.27;100.00;102053.00;5037164;28;20498;-75
2023/10/17 07:24:26;;;;;;;9.13;6.15;;;;;;;6.19;100.00;102046.25;5052789;28;20428;-75
2023/10/17 07:26:52;;;;;;;7.32;6.22;;;;;;;6.16;100.00;102051.66;5057172;28;20024;-75
2023/10/17 07:29:22;;;;;;;6.95;5.00;;;;;;;6.17;100.00;102047.72;5040025;28;20368;-74
2023/10/17 07:31:53;;;;;;;9.07;5.25;;;;;;;6.15;100.00;102042.47;5048161;28;20027;-75
2023/10/17 07:34:21;;;;;;;7.95;5.03;;;;;;;6.27;100.00;102042.69;5060923;28;20082;-75
2023/10/17 07:36:55;;;;;;;10.40;6.22;;;;;;;6.38;100.00;102036.84;5034147;28;20486;-75
2023/10/17 07:39:36;;;;;;;10.98;5.93;;;;;;;6.35;100.00;102037.50;5054702;28;20418;-75
2023/10/17 07:42:14;;;;;;;6.18;4.47;;;;;;;6.37;100.00;102043.56;5036012;28;20075;-74
2023/10/17 07:44:41;;;;;;;8.32;4.50;;;;;;;6.44;100.00;102046.69;5054356;28;20068;-75
2023/10/17 07:49:38;;;;;;;6.00;5.03;;;;;;;6.47;100.00;102058.00;5055494;28;20025;-75
2023/10/17 07:52:12;;;;;;;10.48;5.53;;;;;;;6.39;100.00;102044.03;5044995;28;20025;-75
2023/10/17 07:54:46;;;;;;;7.13;5.32;;;;;;;6.44;100.00;102049.47;5041229;28;20566;-74
2023/10/17 07:57:17;;;;;;;7.07;4.97;;;;;;;6.47;100.00;102044.09;5044785;28;20025;-76
2023/10/17 07:59:51;;;;;;;6.85;4.38;;;;;;;6.53;100.00;102044.75;5038370;28;20047;-75
2023/10/17 08:02:23;;;;;;;9.05;4.13;;;;;;;6.58;100.00;102044.63;5031689;28;20095;-76
2023/10/17 08:04:50;;;;;;;10.35;4.57;;;;;;;6.67;100.00;102042.69;5023916;28;20081;-76
2023/10/17 08:07:16;;;;;;;7.30;4.28;;;;;;;6.67;100.00;102041.88;5047207;28;20083;-75
2023/10/17 08:09:51;;;;;;;10.40;4.68;;;;;;;6.71;100.00;102040.09;5042276;28;20049;-76
2023/10/17 08:12:22;;;;;;;6.22;4.28;;;;;;;6.76;100.00;102037.13;5025542;28;20509;-75
2023/10/17 08:15:18;;;;;;;6.15;3.15;;;;;;;6.79;100.00;102035.66;5041454;28;20059;-76
2023/10/17 08:17:44;;;;;;;6.95;4.00;;;;;;;6.87;100.00;102037.66;5024150;28;20567;-75
2023/10/17 08:20:45;;;;;;;9.85;4.65;;;;;;;6.86;100.00;102036.84;5043072;28;20115;-75
2023/10/17 08:22:55;;;;;;;6.25;3.83;;;;;;;6.94;100.00;102035.22;5040275;28;20048;-75
2023/10/17 08:25:32;;;;;;;8.60;4.60;;;;;;;7.02;100.00;102039.16;5044033;28;20036;-75
2023/10/17 08:27:58;;;;;;;5.70;3.25;;;;;;;7.16;100.00;102039.00;5022663;28;20021;-75
2023/10/17 08:30:25;;;;;;;10.18;3.17;;;;;;;7.20;100.00;102032.47;5043333;28;20087;-75
2023/10/17 08:33:36;;;;;;;7.75;3.38;;;;;;;7.27;100.00;102029.19;5042677;28;20032;-75
2023/10/17 08:35:39;;;;;;;5.28;3.38;;;;;;;7.29;100.00;102033.31;5031332;28;20055;-76
2023/10/17 08:38:11;;;;;;;4.75;2.42;;;;;;;7.38;100.00;102047.22;5044097;28;20486;-75
2023/10/17 08:43:32;;;;;;;9.57;2.80;;;;;;;7.64;100.00;102038.03;5044364;28;20052;-75
2023/10/17 08:45:58;;;;;;;6.78;2.42;;;;;;;7.68;100.00;102039.00;5040112;28;20180;-75
2023/10/17 08:48:24;;;;;;;3.28;2.33;;;;;;;7.65;100.00;102042.44;5039657;28;20399;-75
2023/10/17 08:50:53;;;;;;;3.47;2.40;;;;;;;7.81;100.00;102042.75;5037375;28;20070;-75
2023/10/17 08:53:21;;;;;;;11.15;2.72;;;;;;;7.79;100.00;102040.28;5040219;28;20108;-75
2023/10/17 08:55:48;;;;;;;4.93;2.40;;;;;;;7.88;100.00;102049.44;5023852;28;20029;-75
2023/10/17 08:58:14;;;;;;;9.55;3.28;;;;;;;7.91;100.00;102037.66;5041785;28;20021;-75
2023/10/17 09:03:36;;;;;;;4.33;2.10;;;;;;;7.95;100.00;102018.31;5038897;28;20492;-76
2023/10/17 09:08:55;;;;;;;6.40;1.83;;;;;;;8.27;100.00;102033.59;5040963;28;20490;-75
2023/10/17 09:11:30;;;;;;;9.00;2.10;;;;;;;8.23;100.00;102049.38;5039315;28;20039;-75
2023/10/17 09:14:16;;;;;;;3.75;2.55;;;;;;;8.24;100.00;102034.28;5040553;28;20033;-75
2023/10/17 09:17:16;;;;;;;2.97;2.08;;;;;;;8.38;100.00;102038.81;5045237;28;20058;-75
2023/10/17 09:19:46;;;;;;;2.80;1.67;;;;;;;8.45;100.00;102047.50;5025609;28;20031;-75
2023/10/17 09:22:16;;;;;;;1.95;1.27;;;;;;;8.49;100.00;102045.69;5021651;28;20047;-75
2023/10/17 09:24:45;;;;;;;2.95;2.03;;;;;;;8.48;100.00;102052.44;5044983;28;20024;-75
2023/10/17 09:27:14;;;;;;;2.60;1.42;;;;;;;8.53;100.00;102039.09;5043402;28;20393;-75
2023/10/17 09:29:58;;;;;;;4.50;1.33;;;;;;;8.67;100.00;102047.25;5039302;28;20471;-75
2023/10/17 09:32:33;;;;;;;3.78;1.00;;;;;;;8.80;100.00;102048.16;5038106;28;20024;-76
2023/10/17 09:35:03;;;;;;;4.43;1.67;;;;;;;8.83;100.00;102046.66;5039110;28;20025;-75
2023/10/17 09:37:29;;;;;;;1.88;1.35;;;;;;;8.77;100.00;102040.47;5024186;28;20044;-76
2023/10/17 09:39:56;;;;;;;2.08;1.10;;;;;;;8.99;100.00;102053.31;5035852;28;20033;-75
2023/10/17 09:42:21;;;;;;;3.85;1.60;;;;;;;8.88;100.00;102054.88;5021674;28;20040;-75
2023/10/17 09:44:47;;;;;;;2.00;1.30;;;;;;;8.85;100.00;102056.34;5037722;28;20033;-75
2023/10/17 09:47:19;;;;;;;8.73;1.50;;;;;;;9.05;100.00;102051.94;5044256;28;20036;-76
2023/10/17 09:49:48;;;;;;;1.20;0.68;;;;;;;9.02;100.00;102058.19;5040439;28;20494;-76
2023/10/17 09:52:19;;;;;;;3.03;1.23;;;;;;;9.16;100.00;102052.38;5040730;28;20037;-75
2023/10/17 09:54:51;;;;;;;2.47;0.98;;;;;;;9.29;100.00;102044.88;5041157;28;20113;-75
2023/10/17 09:57:20;;;;;;;2.13;0.67;;;;;;;9.23;100.00;102049.84;5036209;28;20069;-76
2023/10/17 10:00:14;;;;;;;2.55;0.90;;;;;;;9.35;100.00;102051.91;5027924;28;20324;-75
2023/10/17 10:02:41;;;;;;;1.73;0.85;;;;;;;9.35;100.00;102046.31;5037612;28;20029;-76
2023/10/17 10:05:24;;;;;;;2.65;1.27;;;;;;;9.37;100.00;102046.78;5045360;28;20124;-75
2023/10/17 10:07:52;;;;;;;4.65;0.98;;;;;;;9.53;100.00;102044.19;5040800;28;20093;-76
2023/10/17 10:10:56;;;;;;;1.58;0.70;;;;;;;9.56;100.00;102044.31;5037815;28;20132;-76
2023/10/17 10:13:22;;;;;;;4.13;0.80;;;;;;;9.77;100.00;102049.06;4938822;29;20580;-75
2023/10/17 10:15:51;;;;;;;1.55;0.85;;;;;;;9.80;100.00;102045.56;4942076;29;20062;-76
2023/10/17 10:18:17;;;;;;;5.70;1.08;;;;;;;9.92;100.00;102047.59;4971369;28;20116;-76
2023/10/17 10:20:55;;;;;;;1.13;0.70;;;;;;;9.93;100.00;102050.06;5040440;28;20044;-76
2023/10/17 10:23:35;;;;;;;3.00;0.82;;;;;;;9.91;97.87;102046.78;5045237;28;20033;-76
2023/10/17 10:26:19;;;;;;;0.85;0.57;;;;;;;9.92;96.17;102051.19;5043837;28;20021;-75
2023/10/17 10:28:48;;;;;;;2.47;0.70;;;;;;;9.95;98.10;102044.94;5039573;28;20037;-76
2023/10/17 10:31:22;;;;;;;2.08;0.70;;;;;;;10.06;96.67;102044.50;5048918;28;20029;-75
2023/10/17 10:33:53;;;;;;;2.08;0.80;;;;;;;10.08;95.71;102037.38;5044749;28;20037;-75
2023/10/17 10:36:20;;;;;;;6.05;0.90;;;;;;;10.11;95.23;102039.47;5040049;28;20021;-76
2023/10/17 10:38:45;;;;;;;1.23;0.73;;;;;;;10.06;95.92;102022.94;5046180;28;20033;-76
2023/10/17 10:41:13;;;;;;;3.17;1.13;;;;;;;10.27;93.24;102034.03;5044971;28;20067;-76
2023/10/17 10:43:40;;;;;;;3.35;1.77;;;;;;;10.39;93.78;102019.25;5024121;28;20835;-76
2023/10/17 10:46:05;;;;;;;2.03;0.80;;;;;;;10.27;95.16;102017.25;5037376;28;20033;-75
2023/10/17 10:48:32;;;;;;;0.80;0.68;;;;;;;10.36;95.90;102017.16;5041311;28;20023;-76
2023/10/17 10:50:59;;;;;;;1.35;0.93;;;;;;;10.50;92.57;102008.44;5046821;28;20039;-76
2023/10/17 10:53:31;;;;;;;1.75;1.10;;;;;;;10.47;90.40;102003.53;5039472;28;20033;-76
2023/10/17 10:56:11;;;;;;;3.08;0.80;;;;;;;10.57;91.93;102003.88;5042459;28;20025;-76
2023/10/17 10:58:51;;;;;;;2.97;0.80;;;;;;;10.84;92.88;101998.72;5037044;28;20495;-76
2023/10/17 11:01:18;;;;;;;2.75;1.02;;;;;;;10.87;91.58;102003.59;5041352;28;20437;-76
2023/10/17 11:03:46;;;;;;;2.40;0.90;;;;;;;10.78;90.56;101995.34;5036485;28;20026;-75
2023/10/17 11:06:13;;;;;;;2.95;1.05;;;;;;;10.85;89.30;101996.72;5034121;28;20034;-75
2023/10/17 11:08:46;;;;;;;1.23;0.70;;;;;;;10.73;88.00;101984.38;5038436;28;20026;-75
2023/10/17 11:11:16;;;;;;;2.92;1.10;;;;;;;10.77;90.48;101985.31;5027019;28;20033;-75
2023/10/17 11:13:49;;;;;;;4.50;1.00;;;;;;;10.96;89.29;101981.91;5035940;28;20033;-76
2023/10/17 11:16:19;;;;;;;1.30;0.80;;;;;;;10.87;89.52;101972.00;5039157;28;20561;-75
2023/10/17 11:18:45;;;;;;;4.05;1.10;;;;;;;10.92;91.76;101968.94;5042276;28;20435;-75
2023/10/17 11:21:12;;;;;;;2.30;1.27;;;;;;;10.76;91.21;101964.06;5043539;28;20036;-76
2023/10/17 11:23:47;;;;;;;1.73;0.80;;;;;;;10.93;87.68;101968.59;5021010;28;20028;-75
2023/10/17 11:26:17;;;;;;;3.20;0.82;;;;;;;10.90;88.17;101962.88;5045558;28;20498;-76
2023/10/17 11:28:46;;;;;;;4.32;0.88;;;;;;;11.00;87.52;101959.56;5038835;28;20367;-75
2023/10/17 11:31:13;;;;;;;2.15;1.08;;;;;;;10.89;90.73;101950.03;5038923;28;20081;-76
2023/10/17 11:33:45;;;;;;;2.33;0.90;;;;;;;10.95;87.56;101957.03;5026683;28;20520;-75
2023/10/17 11:36:19;;;;;;;1.17;0.73;;;;;;;10.92;87.42;101958.56;5043882;28;20761;-76
2023/10/17 11:38:53;;;;;;;1.15;0.75;;;;;;;10.99;85.46;101958.75;5039649;28;20827;-76
2023/10/17 11:41:19;;;;;;;2.03;0.98;;;;;;;11.09;86.47;101957.47;5042556;28;20028;-76
2023/10/17 11:43:51;;;;;;;4.70;1.17;;;;;;;11.06;86.15;101955.34;5042800;28;20364;-75
2023/10/17 11:46:28;;;;;;;1.40;0.87;;;;;;;10.91;88.00;101953.31;5042185;28;20029;-76
2023/10/17 11:48:54;;;;;;;2.80;1.15;;;;;;;10.90;88.52;101951.66;5042896;28;20086;-76
2023/10/17 11:51:28;;;;;;;3.80;1.20;;;;;;;10.98;87.50;101957.16;5039821;28;20083;-75
2023/10/17 11:54:07;;;;;;;3.58;0.80;;;;;;;11.05;87.11;101953.75;5041522;28;20025;-76
2023/10/17 11:56:37;;;;;;;1.45;0.90;;;;;;;11.12;85.82;101951.13;5038106;28;20025;-76
2023/10/17 11:59:06;;;;;;;3.83;1.33;;;;;;;11.28;82.75;101947.56;5041089;28;20029;-76
2023/10/17 12:01:35;;;;;;;3.17;0.90;;;;;;;11.22;88.59;101940.63;5039073;28;20048;-76
2023/10/17 12:04:05;;;;;;;3.75;1.48;;;;;;;10.98;87.56;101945.94;5040719;28;20837;-75
2023/10/17 12:06:31;;;;;;;2.10;0.85;;;;;;;10.99;89.04;101932.75;5014833;28;20050;-76
2023/10/17 12:08:56;;;;;;;3.45;1.20;;;;;;;11.10;86.98;101928.25;5024630;28;20102;-76
2023/10/17 12:11:24;;;;;;;2.47;1.17;;;;;;;11.04;90.29;101926.88;5020287;28;20401;-76
2023/10/17 12:13:51;;;;;;;1.48;1.00;;;;;;;11.30;88.29;101929.25;5018862;28;20033;-76
2023/10/17 12:16:17;;;;;;;2.15;1.10;;;;;;;11.30;85.32;101928.41;5016289;28;20026;-75
2023/10/17 12:18:44;;;;;;;2.38;1.30;;;;;;;11.30;86.84;101931.22;5017606;28;20036;-76
2023/10/17 12:21:14;;;;;;;2.80;1.08;;;;;;;11.05;88.72;101931.31;5020157;28;20035;-76
2023/10/17 12:23:40;;;;;;;4.47;1.00;;;;;;;11.28;85.38;101925.16;5020591;28;20067;-76
2023/10/17 12:26:08;;;;;;;2.75;1.13;;;;;;;11.46;85.56;101931.25;5022151;28;20060;-75
2023/10/17 12:28:35;;;;;;;7.28;1.50;;;;;;;11.46;86.43;101912.44;5016776;28;20112;-75
2023/10/17 12:31:01;;;;;;;2.08;1.10;;;;;;;11.42;86.80;101911.53;5017325;28;20055;-76
2023/10/17 12:33:27;;;;;;;5.35;1.30;;;;;;;11.37;86.09;101906.19;5021885;28;20196;-76
2023/10/17 12:35:52;;;;;;;4.13;1.13;;;;;;;11.53;86.73;101904.25;5018129;28;20030;-76
2023/10/17 12:38:25;;;;;;;2.15;1.30;;;;;;;11.53;87.25;101904.25;5020590;28;20065;-76
2023/10/17 12:40:52;;;;;;;4.78;1.40;;;;;;;11.42;87.34;101897.50;5021779;28;20030;-76
2023/10/17 12:43:19;;;;;;;2.40;1.10;;;;;;;11.49;86.78;101897.72;5016402;28;20052;-76
2023/10/17 12:45:45;;;;;;;3.63;1.27;;;;;;;11.62;84.64;101895.66;5017542;28;20908;-76
2023/10/17 12:48:11;;;;;;;2.63;1.27;;;;;;;11.54;86.51;101888.22;5015533;28;20037;-76
2023/10/17 12:50:43;;;;;;;3.75;1.25;;;;;;;11.55;86.59;101879.47;5015008;28;20559;-76
2023/10/17 12:53:18;;;;;;;4.70;1.17;;;;;;;11.44;86.95;101877.53;5016063;28;20025;-76
2023/10/17 12:55:43;;;;;;;1.48;1.23;;;;;;;11.52;88.27;101880.16;5017688;28;20029;-76
2023/10/17 12:58:10;;;;;;;4.97;0.93;;;;;;;11.34;91.09;101876.91;5019198;28;20068;-76
2023/10/17 13:00:40;;;;;;;6.32;2.35;;;;;;;11.29;87.72;101870.72;5014842;28;20033;-77
2023/10/17 13:03:06;;;;;;;3.85;1.17;;;;;;;11.25;89.42;101869.81;5014516;28;20033;-76
2023/10/17 13:05:32;;;;;;;1.90;1.00;;;;;;;11.13;87.59;101863.13;5012902;28;20036;-76
2023/10/17 13:07:57;;;;;;;4.20;1.85;;;;;;;11.15;89.33;101866.38;5037269;28;20041;-75
2023/10/17 13:10:23;;;;;;;1.42;1.00;;;;;;;10.89;88.81;101866.00;5034793;28;20033;-75
2023/10/17 13:12:48;;;;;;;2.08;1.20;;;;;;;11.02;87.64;101864.78;5015627;28;20132;-75
2023/10/17 13:15:16;;;;;;;1.88;1.17;;;;;;;10.91;87.51;101863.66;5038516;28;20036;-75
2023/10/17 13:17:42;;;;;;;4.03;0.98;;;;;;;10.95;87.66;101857.00;5033726;28;20033;-74
2023/10/17 13:20:09;;;;;;;2.90;1.05;;;;;;;10.99;90.35;101857.09;5018775;28;20505;-75
2023/10/17 13:22:41;;;;;;;2.28;1.13;;;;;;;10.94;90.41;101854.53;5037630;28;20603;-75
2023/10/17 13:25:10;;;;;;;3.08;1.20;;;;;;;10.79;91.15;101844.91;5017590;28;20052;-75
2023/10/17 13:27:37;;;;;;;3.20;1.45;;;;;;;10.89;88.16;101850.00;5038720;28;20033;-74
2023/10/17 13:30:04;;;;;;;6.03;1.42;;;;;;;10.83;90.44;101842.22;5018338;28;20505;-75
2023/10/17 13:32:30;;;;;;;1.83;1.02;;;;;;;10.90;87.84;101831.22;5039309;28;20394;-75
2023/10/17 13:34:56;;;;;;;2.17;1.52;;;;;;;11.01;87.47;101834.34;5037295;28;20478;-75
2023/10/17 13:37:21;;;;;;;1.88;1.08;;;;;;;10.98;88.92;101838.66;5016194;28;20083;-75
2023/10/17 13:39:47;;;;;;;1.52;0.90;;;;;;;10.97;88.59;101835.03;5038835;28;20063;-75
2023/10/17 13:42:13;;;;;;;2.88;0.90;;;;;;;11.00;88.08;101825.09;5026113;28;20152;-75
2023/10/17 13:44:38;;;;;;;4.40;1.20;;;;;;;10.96;88.59;101825.03;5036437;28;20040;-75
2023/10/17 13:47:07;;;;;;;2.83;2.05;;;;;;;10.97;89.42;101814.63;5019665;28;20029;-74